Time;durP1;ratioP1;P1;durP2;ratioP2;P2;SDS_P1;SDS_P2;PMS_P1;PMS_P2;Temp;Humidity;BMP_temperature;BMP_pressure;BME280_temperature;BME280_humidity;BME280_pressure;Samples;Min_cycle;Max_cycle;Signal;HPM_P1;HPM_P2
2023/10/29 00:01:23;;;;;;;1999.90;999.90;;;;;;;10.01;100.00;96340.88;18621298;31;20052;-58
2023/10/29 00:11:25;;;;;;;1999.90;999.90;;;;;;;9.91;100.00;96341.06;18633732;31;20484;-58
2023/10/29 00:21:30;;;;;;;1999.90;999.90;;;;;;;9.82;100.00;96338.25;18606195;31;20079;-58
2023/10/29 00:31:33;;;;;;;1999.90;999.90;;;;;;;9.59;100.00;96355.41;18606245;31;20052;-58
2023/10/29 00:41:35;;;;;;;1999.90;999.90;;;;;;;9.46;100.00;96362.38;18618188;31;20048;-58
2023/10/29 00:51:38;;;;;;;1999.90;999.90;;;;;;;9.46;100.00;96357.75;18605099;31;20068;-58
2023/10/29 01:01:41;;;;;;;1999.90;999.90;;;;;;;9.41;100.00;96371.31;18631869;31;20124;-58
2023/10/29 01:11:44;;;;;;;1999.90;999.90;;;;;;;9.30;100.00;96375.28;18616812;31;20048;-58
2023/10/29 01:21:47;;;;;;;1999.90;999.90;;;;;;;9.28;100.00;96372.09;18602833;31;20057;-58
2023/10/29 01:31:49;;;;;;;1999.90;999.90;;;;;;;9.22;100.00;96367.84;18602106;31;20096;-58
2023/10/29 01:41:55;;;;;;;1999.90;999.90;;;;;;;9.10;100.00;96366.41;18621933;31;20104;-58
2023/10/29 01:51:58;;;;;;;1999.90;999.90;;;;;;;8.85;100.00;96362.19;18600055;31;20046;-58
2023/10/29 02:02:00;;;;;;;1999.90;999.90;;;;;;;8.76;100.00;96355.84;18613775;31;20071;-58
2023/10/29 02:12:03;;;;;;;1999.90;999.90;;;;;;;8.85;100.00;96345.22;18612954;31;20072;-58
2023/10/29 02:22:05;;;;;;;1999.90;999.90;;;;;;;8.79;100.00;96301.38;18612160;31;20044;-58
2023/10/29 02:32:08;;;;;;;1999.90;999.90;;;;;;;8.94;100.00;96293.03;18604451;31;20056;-59
2023/10/29 02:42:14;;;;;;;1999.90;999.90;;;;;;;8.93;100.00;96272.56;18625338;31;20078;-59
2023/10/29 02:52:17;;;;;;;1999.90;999.90;;;;;;;8.84;100.00;96263.56;18611567;31;20069;-58
2023/10/29 03:02:20;;;;;;;1999.90;999.90;;;;;;;8.67;100.00;96242.53;18610070;31;20070;-58
2023/10/29 03:12:22;;;;;;;1999.90;999.90;;;;;;;8.87;100.00;96216.38;18597369;31;20068;-58
2023/10/29 03:22:24;;;;;;;1999.90;999.90;;;;;;;9.36;100.00;96196.09;18610047;31;20100;-59
2023/10/29 03:32:27;;;;;;;1999.90;999.90;;;;;;;9.58;100.00;96187.31;18609774;31;20048;-58
2023/10/29 03:42:29;;;;;;;1999.90;999.90;;;;;;;10.13;100.00;96180.25;18612807;31;20096;-58
2023/10/29 03:52:32;;;;;;;1999.90;999.90;;;;;;;10.02;100.00;96168.88;18621276;31;20140;-58
2023/10/29 04:02:34;;;;;;;1999.90;999.90;;;;;;;10.31;100.00;96178.50;18607707;31;20095;-58
2023/10/29 04:12:37;;;;;;;1999.90;999.90;;;;;;;10.53;100.00;96166.16;18606883;31;20056;-58
2023/10/29 04:22:42;;;;;;;1999.90;999.90;;;;;;;10.77;100.00;96177.47;18612444;31;20053;-58
2023/10/29 04:32:44;;;;;;;1999.90;999.90;;;;;;;11.08;100.00;96184.78;18606538;31;20444;-58
2023/10/29 04:42:47;;;;;;;1999.90;999.90;;;;;;;11.47;100.00;96187.84;18618298;31;20373;-58
2023/10/29 04:52:50;;;;;;;1999.90;999.90;;;;;;;11.25;100.00;96183.28;18617252;31;20052;-58
2023/10/29 05:02:53;;;;;;;1999.90;999.90;;;;;;;11.72;100.00;96178.25;18631387;31;20120;-59
2023/10/29 05:12:56;;;;;;;1999.90;999.90;;;;;;;11.84;100.00;96175.72;18616285;31;20075;-58
2023/10/29 05:22:58;;;;;;;1999.90;999.90;;;;;;;11.98;100.00;96162.06;18610232;31;20436;-58
2023/10/29 05:33:02;;;;;;;1999.90;999.90;;;;;;;11.96;100.00;96168.91;18602420;31;20048;-58
2023/10/29 05:43:04;;;;;;;1999.90;999.90;;;;;;;12.60;100.00;96165.63;18614452;31;20549;-58
2023/10/29 05:53:07;;;;;;;1999.90;999.90;;;;;;;12.64;100.00;96168.50;18613413;31;20053;-58
2023/10/29 06:03:10;;;;;;;1999.90;999.90;;;;;;;13.64;100.00;96203.72;18600163;31;20048;-58
2023/10/29 06:13:13;;;;;;;1999.90;999.90;;;;;;;14.51;100.00;96263.06;18611785;31;20368;-58
2023/10/29 06:23:16;;;;;;;1999.90;999.90;;;;;;;14.24;100.00;96288.81;18612402;31;20086;-58
2023/10/29 06:33:19;;;;;;;1999.90;999.90;;;;;;;13.39;100.00;96296.59;18598898;31;20056;-58
2023/10/29 06:43:24;;;;;;;1999.90;999.90;;;;;;;12.99;100.00;96295.94;18611298;31;20051;-58
2023/10/29 06:53:29;;;;;;;1999.90;999.90;;;;;;;12.81;100.00;96306.81;18610947;31;20468;-59
2023/10/29 07:03:33;;;;;;;1999.90;999.90;;;;;;;12.67;100.00;96319.69;18607056;31;20060;-58
2023/10/29 07:13:36;;;;;;;1999.90;999.90;;;;;;;13.00;100.00;96325.47;18608943;31;20056;-58
2023/10/29 07:23:38;;;;;;;1999.90;999.90;;;;;;;12.96;100.00;96332.66;18621175;31;20094;-58
2023/10/29 07:33:41;;;;;;;1999.90;999.90;;;;;;;13.04;100.00;96339.19;18610013;31;20059;-58
2023/10/29 07:43:43;;;;;;;1999.90;999.90;;;;;;;12.85;100.00;96339.50;18608569;31;20098;-58
2023/10/29 07:53:46;;;;;;;1999.90;999.90;;;;;;;12.69;100.00;96347.31;18608634;31;20048;-58
2023/10/29 08:03:50;;;;;;;1999.90;999.90;;;;;;;12.52;100.00;96358.91;18614178;31;20075;-58
2023/10/29 08:13:53;;;;;;;1999.90;999.90;;;;;;;12.39;100.00;96341.66;18620505;31;20048;-58
2023/10/29 08:23:55;;;;;;;1999.90;999.90;;;;;;;12.50;100.00;96347.59;18619730;31;20072;-58
2023/10/29 08:33:59;;;;;;;1999.90;999.90;;;;;;;12.46;100.00;96330.34;18618305;31;20369;-58
2023/10/29 08:44:01;;;;;;;1999.90;999.90;;;;;;;12.75;100.00;96326.25;18604971;31;20060;-58
2023/10/29 08:54:05;;;;;;;1999.90;999.90;;;;;;;12.80;100.00;96355.91;18625349;31;20048;-59
2023/10/29 09:04:08;;;;;;;1999.90;999.90;;;;;;;12.66;100.00;96342.50;18603980;31;20056;-58
2023/10/29 09:14:13;;;;;;;1999.90;999.90;;;;;;;12.75;100.00;96365.03;18617023;31;20037;-59
2023/10/29 09:24:15;;;;;;;1999.90;999.90;;;;;;;12.77;100.00;96351.97;18616100;31;20057;-58
2023/10/29 09:34:18;;;;;;;1999.90;999.90;;;;;;;12.75;100.00;96345.25;18629983;31;20147;-58
2023/10/29 09:44:22;;;;;;;1999.90;999.90;;;;;;;12.86;100.00;96355.47;18614057;31;20063;-58
2023/10/29 09:54:25;;;;;;;1999.90;999.90;;;;;;;12.93;100.00;96363.13;18613935;31;20092;-58
2023/10/29 10:04:29;;;;;;;1999.90;999.90;;;;;;;13.28;100.00;96359.63;18600167;31;20139;-59
2023/10/29 10:14:32;;;;;;;1999.90;999.90;;;;;;;13.73;100.00;96370.97;18627309;31;20064;-58
2023/10/29 10:24:38;;;;;;;1999.90;999.90;;;;;;;14.11;100.00;96364.00;18626673;31;20104;-59
2023/10/29 10:34:50;;;;;;;1999.90;999.90;;;;;;;14.16;100.00;96355.66;18599473;31;20466;-58
2023/10/29 10:44:57;;;;;;;1999.90;999.90;;;;;;;14.43;100.00;96347.41;18591391;31;20048;-58
2023/10/29 10:55:02;;;;;;;1999.90;999.90;;;;;;;14.40;100.00;96337.97;18598096;31;20088;-58
2023/10/29 11:05:07;;;;;;;;;;;;;;;14.27;100.00;96330.84;18610619;31;20060;-58
2023/10/29 11:15:16;;;;;;;1999.90;999.90;;;;;;;14.02;100.00;96300.75;18611496;31;20000;-58
2023/10/29 11:25:28;;;;;;;1999.90;999.90;;;;;;;14.19;100.00;96289.78;18610321;31;20060;-58
2023/10/29 11:35:32;;;;;;;1999.90;999.90;;;;;;;13.85;100.00;96294.25;18603357;31;20052;-58
2023/10/29 11:45:36;;;;;;;1999.90;999.90;;;;;;;13.70;100.00;96302.91;18609494;31;20438;-58
2023/10/29 11:55:42;;;;;;;1999.90;999.90;;;;;;;13.87;100.00;96304.78;18609377;31;20385;-58
2023/10/29 12:05:52;;;;;;;1999.90;999.90;;;;;;;14.30;100.00;96316.59;18613846;31;20091;-58
2023/10/29 12:15:57;;;;;;;1999.90;999.90;;;;;;;14.70;100.00;96324.41;18634905;31;20065;-58
2023/10/29 12:26:01;;;;;;;1999.90;999.90;;;;;;;15.28;100.00;96335.53;18619629;31;20075;-59
2023/10/29 12:36:13;;;;;;;;;;;;;;;15.61;100.00;96334.75;18618557;31;20063;-58
2023/10/29 12:46:24;;;;;;;1999.90;999.90;;;;;;;15.41;100.00;96336.34;18632684;31;19947;-58
2023/10/29 12:56:26;;;;;;;1999.90;999.90;;;;;;;15.33;100.00;96318.94;18631894;31;20092;-58
2023/10/29 13:06:29;;;;;;;1999.90;999.90;;;;;;;15.08;100.00;96324.28;18617246;31;20048;-58
2023/10/29 13:16:32;;;;;;;1999.90;999.90;;;;;;;14.87;100.00;96307.19;18630299;31;20056;-58
2023/10/29 13:26:35;;;;;;;1999.90;999.90;;;;;;;14.65;100.00;96283.78;18623302;31;20396;-58
2023/10/29 13:36:39;;;;;;;1999.90;999.90;;;;;;;14.91;100.00;96281.69;18615206;31;20078;-58
2023/10/29 13:46:42;;;;;;;1999.90;999.90;;;;;;;14.93;100.00;96283.28;18614185;31;20056;-58
2023/10/29 13:56:45;;;;;;;1999.90;999.90;;;;;;;14.79;100.00;96268.00;18614403;31;20052;-58
2023/10/29 14:06:49;;;;;;;1999.90;999.90;;;;;;;14.63;100.00;96289.56;18627611;31;20094;-58
2023/10/29 14:16:53;;;;;;;1999.90;999.90;;;;;;;14.56;100.00;96268.28;18620478;31;20067;-58
2023/10/29 14:26:56;;;;;;;1999.90;999.90;;;;;;;14.47;100.00;96243.09;18613295;31;20117;-59
2023/10/29 14:37:00;;;;;;;1999.90;999.90;;;;;;;14.45;100.00;96226.31;18598532;31;20052;-58
2023/10/29 14:47:03;;;;;;;1999.90;999.90;;;;;;;14.79;100.00;96227.19;18625218;31;20052;-58
2023/10/29 14:57:06;;;;;;;1999.90;999.90;;;;;;;14.91;100.00;96204.69;18625375;31;20138;-58
2023/10/29 15:07:25;;;;;;;1999.90;999.90;;;;;;;14.95;100.00;96219.22;18610981;31;20376;-59
2023/10/29 15:17:29;;;;;;;1999.90;999.90;;;;;;;14.86;100.00;96222.00;18597184;31;20056;-58
2023/10/29 15:27:35;;;;;;;1999.90;999.90;;;;;;;15.22;100.00;96225.22;18624490;31;20051;-58
2023/10/29 15:37:40;;;;;;;1999.90;999.90;;;;;;;15.68;100.00;96255.19;18612418;31;20067;-58
2023/10/29 15:47:44;;;;;;;1999.90;999.90;;;;;;;15.83;100.00;96265.44;18608892;31;20071;-58
2023/10/29 15:57:47;;;;;;;1999.90;999.90;;;;;;;16.22;100.00;96273.31;18636376;31;20052;-58
2023/10/29 16:07:50;;;;;;;1999.90;999.90;;;;;;;15.90;100.00;96270.34;18600913;31;20325;-58
2023/10/29 16:17:53;;;;;;;1999.90;999.90;;;;;;;15.91;100.00;96269.22;18620158;31;20048;-58
2023/10/29 16:27:57;;;;;;;1999.90;999.90;;;;;;;15.99;100.00;96283.84;18606941;31;20060;-58
2023/10/29 16:38:00;;;;;;;1999.90;999.90;;;;;;;15.81;100.00;96281.31;18619129;31;20352;-58
2023/10/29 16:48:03;;;;;;;1999.90;999.90;;;;;;;16.19;100.00;96291.13;18604385;31;20049;-58
2023/10/29 16:58:07;;;;;;;1999.90;999.90;;;;;;;16.13;100.00;96314.31;18632126;31;20132;-58
2023/10/29 17:08:10;;;;;;;1999.90;999.90;;;;;;;16.40;100.00;96326.50;18631315;31;20048;-58
2023/10/29 17:18:12;;;;;;;1999.90;999.90;;;;;;;16.40;100.00;96328.41;18616853;31;20059;-58
2023/10/29 17:28:18;;;;;;;1999.90;999.90;;;;;;;16.14;100.00;96351.34;18616311;31;20049;-58
2023/10/29 17:38:21;;;;;;;1999.90;999.90;;;;;;;15.99;100.00;96349.28;18602445;31;20086;-58
2023/10/29 17:48:24;;;;;;;1999.90;999.90;;;;;;;15.97;100.00;96359.75;18601167;31;20088;-58
2023/10/29 17:58:27;;;;;;;1999.90;999.90;;;;;;;15.80;100.00;96377.06;18607382;31;20053;-59
2023/10/29 18:08:30;;;;;;;1999.90;999.90;;;;;;;15.83;100.00;96390.03;18613388;31;20067;-58
2023/10/29 18:18:34;;;;;;;1999.90;999.90;;;;;;;16.28;100.00;96421.97;18613221;31;20064;-59
2023/10/29 18:28:37;;;;;;;1999.90;999.90;;;;;;;15.90;100.00;96450.25;18598348;31;20056;-59
2023/10/29 18:38:40;;;;;;;1999.90;999.90;;;;;;;16.11;100.00;96490.31;18626276;31;20060;-59
2023/10/29 18:48:43;;;;;;;1999.90;999.90;;;;;;;15.75;100.00;96496.00;18611242;31;20435;-59
2023/10/29 18:58:46;;;;;;;1999.90;999.90;;;;;;;15.46;100.00;96510.47;18611099;31;20060;-59
2023/10/29 19:08:49;;;;;;;1999.90;999.90;;;;;;;15.16;100.00;96534.22;18597657;31;20093;-59
2023/10/29 19:18:53;;;;;;;1999.90;999.90;;;;;;;14.85;100.00;96540.72;18620450;31;20436;-59
2023/10/29 19:28:57;;;;;;;1999.90;999.90;;;;;;;14.55;100.00;96551.50;18610155;31;20439;-58
2023/10/29 19:39:00;;;;;;;1999.90;999.90;;;;;;;14.35;100.00;96572.00;18637364;31;20086;-58
2023/10/29 19:49:03;;;;;;;1999.90;999.90;;;;;;;14.19;100.00;96572.47;18608470;31;20040;-58
2023/10/29 19:59:07;;;;;;;1999.90;999.90;;;;;;;14.07;100.00;96588.63;18635817;31;20448;-59
2023/10/29 20:09:10;;;;;;;1999.90;999.90;;;;;;;13.94;100.00;96593.13;18620755;31;20056;-58
2023/10/29 20:19:13;;;;;;;1999.90;999.90;;;;;;;13.78;100.00;96617.22;18620052;31;20068;-58
2023/10/29 20:29:15;;;;;;;1999.90;999.90;;;;;;;13.67;100.00;96615.91;18605794;31;20052;-58
2023/10/29 20:39:18;;;;;;;1999.90;999.90;;;;;;;13.56;100.00;96632.50;18599367;31;20088;-59
2023/10/29 20:49:21;;;;;;;1999.90;999.90;;;;;;;13.39;100.00;96627.03;18553192;32;20115;-58
2023/10/29 20:59:24;;;;;;;1999.90;999.90;;;;;;;13.33;100.00;96623.63;18552796;32;20057;-58
2023/10/29 21:09:27;;;;;;;1999.90;999.90;;;;;;;13.31;100.00;96619.63;18565001;32;20072;-57
2023/10/29 21:19:31;;;;;;;1999.90;999.90;;;;;;;13.15;100.00;96622.72;18551331;32;20364;-57
2023/10/29 21:29:34;;;;;;;1999.90;999.90;;;;;;;13.18;100.00;96622.13;18563585;32;20483;-57
2023/10/29 21:39:36;;;;;;;1999.90;999.90;;;;;;;13.04;100.00;96605.91;18562738;32;20109;-57
2023/10/29 21:49:42;;;;;;;1999.90;999.90;;;;;;;12.93;100.00;96620.06;18549028;32;20086;-57
2023/10/29 21:59:47;;;;;;;1999.90;999.90;;;;;;;12.82;100.00;96620.31;18562988;31;20501;-57
2023/10/29 22:09:52;;;;;;;1999.90;999.90;;;;;;;12.74;100.00;96609.44;18561112;32;20053;-57
2023/10/29 22:19:55;;;;;;;;;;;;;;;12.69;100.00;96616.59;18548177;32;20379;-57
2023/10/29 22:29:58;;;;;;;1999.90;999.90;;;;;;;12.63;100.00;96611.59;18560511;32;19932;-57
2023/10/29 22:40:01;;;;;;;1999.90;999.90;;;;;;;12.53;100.00;96618.06;18559877;32;20048;-57
2023/10/29 22:50:04;;;;;;;1999.90;999.90;;;;;;;12.38;100.00;96609.19;18617984;31;20052;-57
2023/10/29 23:00:12;;;;;;;1999.90;999.90;;;;;;;12.31;100.00;96608.81;18611135;31;20128;-56
2023/10/29 23:10:16;;;;;;;1999.90;999.90;;;;;;;12.18;100.00;96617.78;18611136;31;20096;-57
2023/10/29 23:20:19;;;;;;;1999.90;999.90;;;;;;;11.87;100.00;96619.25;18606778;31;20077;-56
2023/10/29 23:30:21;;;;;;;1999.90;999.90;;;;;;;11.73;100.00;96629.31;18593844;31;20086;-57
2023/10/29 23:40:25;;;;;;;1999.90;999.90;;;;;;;11.57;100.00;96636.16;18596725;31;20056;-57
2023/10/29 23:50:27;;;;;;;1999.90;999.90;;;;;;;11.36;100.00;96648.19;18608998;31;20147;-57
